Time;durP1;ratioP1;P1;durP2;ratioP2;P2;SDS_P1;SDS_P2;PMS_P1;PMS_P2;Temp;Humidity;BMP_temperature;BMP_pressure;BME280_temperature;BME280_humidity;BME280_pressure;Samples;Min_cycle;Max_cycle;Signal;HPM_P1;HPM_P2
2021/12/04 00:00:22;;;;;;;33.10;22.30;;;;;;;-3.16;87.93;98494.69;2062642;28;20240;-69
2021/12/04 00:01:26;;;;;;;32.97;22.85;;;;;;;-3.17;87.09;98491.28;2069555;28;20250;-70
2021/12/04 00:02:28;;;;;;;27.48;22.35;;;;;;;-3.19;87.32;98492.53;2069953;28;20243;-69
2021/12/04 00:03:29;;;;;;;35.88;23.35;;;;;;;-3.20;86.65;98496.16;2070101;28;20634;-69
2021/12/04 00:04:32;;;;;;;33.20;23.97;;;;;;;-3.20;86.97;98493.53;2069928;28;20219;-69
2021/12/04 00:05:33;;;;;;;33.15;22.50;;;;;;;-3.23;86.26;98493.97;2061967;28;20585;-69
2021/12/04 00:06:39;;;;;;;33.27;23.47;;;;;;;-3.21;86.43;98499.78;2061807;28;20252;-69
2021/12/04 00:07:41;;;;;;;34.08;22.80;;;;;;;-3.25;86.17;98504.63;2063874;28;20318;-70
2021/12/04 00:08:46;;;;;;;34.85;22.73;;;;;;;-3.25;86.18;98503.81;2061511;28;20241;-69
2021/12/04 00:09:50;;;;;;;31.98;21.95;;;;;;;-3.27;86.48;98506.66;2070345;28;20219;-69
2021/12/04 00:10:51;;;;;;;31.55;23.08;;;;;;;-3.29;86.21;98500.88;2079438;28;20216;-69
2021/12/04 00:11:55;;;;;;;31.17;22.35;;;;;;;-3.29;86.36;98497.47;2077649;28;20235;-70
2021/12/04 00:12:57;;;;;;;27.98;21.77;;;;;;;-3.32;86.85;98500.50;2069745;28;20271;-69
2021/12/04 00:13:58;;;;;;;32.53;23.40;;;;;;;-3.35;86.77;98493.13;2070222;28;20235;-69
2021/12/04 00:15:00;;;;;;;34.93;23.33;;;;;;;-3.35;86.86;98490.53;2069824;28;20223;-69
2021/12/04 00:16:01;;;;;;;37.53;22.65;;;;;;;-3.39;87.37;98486.75;2069989;28;20234;-69
2021/12/04 00:17:04;;;;;;;33.07;22.53;;;;;;;-3.43;87.57;98487.19;2070712;28;20307;-69
2021/12/04 00:18:07;;;;;;;30.52;22.52;;;;;;;-3.42;87.36;98494.00;2077848;28;20643;-69
2021/12/04 00:19:07;;;;;;;36.28;23.65;;;;;;;-3.46;87.56;98492.06;2069666;28;20227;-70
2021/12/04 00:20:11;;;;;;;36.00;23.87;;;;;;;-3.46;88.09;98484.25;2069435;28;20243;-70
2021/12/04 00:21:11;;;;;;;28.83;22.50;;;;;;;-3.46;87.74;98486.84;2077691;28;20289;-69
2021/12/04 00:22:15;;;;;;;27.50;21.90;;;;;;;-3.47;87.98;98486.06;2069953;28;20227;-69
2021/12/04 00:23:15;;;;;;;30.10;22.00;;;;;;;-3.48;88.16;98484.44;2070066;28;20223;-69
2021/12/04 00:24:18;;;;;;;27.60;21.57;;;;;;;-3.51;88.53;98473.66;2078154;28;20780;-69
2021/12/04 00:25:18;;;;;;;32.88;22.27;;;;;;;-3.51;88.34;98481.47;2078897;28;20678;-69
2021/12/04 00:26:20;;;;;;;29.40;22.03;;;;;;;-3.54;88.88;98477.50;2078829;28;20621;-69
2021/12/04 00:27:21;;;;;;;33.78;23.55;;;;;;;-3.57;89.73;98470.09;2078800;28;20624;-69
2021/12/04 00:28:25;;;;;;;29.83;22.60;;;;;;;-3.62;90.82;98474.41;2077321;28;20245;-70
2021/12/04 00:29:26;;;;;;;29.00;22.30;;;;;;;-3.66;91.07;98471.41;2070215;28;20459;-69
2021/12/04 00:30:28;;;;;;;28.53;20.70;;;;;;;-3.66;91.42;98471.41;2077735;28;20223;-70
2021/12/04 00:31:29;;;;;;;30.17;20.63;;;;;;;-3.67;91.02;98469.03;2086051;28;20222;-69
2021/12/04 00:32:32;;;;;;;32.60;22.17;;;;;;;-3.68;91.05;98467.44;2086026;28;20229;-69
2021/12/04 00:33:35;;;;;;;34.08;22.65;;;;;;;-3.75;91.19;98467.53;2078673;28;20280;-70
2021/12/04 00:34:42;;;;;;;29.45;22.00;;;;;;;-3.75;91.43;98472.72;2078824;28;20250;-70
2021/12/04 00:35:46;;;;;;;30.35;21.85;;;;;;;-3.77;91.63;98472.16;2078488;28;20223;-70
2021/12/04 00:37:04;;;;;;;33.67;22.65;;;;;;;-3.79;91.38;98464.56;2078135;28;20227;-69
2021/12/04 00:43:17;;;;;;;29.77;21.13;;;;;;;-3.81;91.88;98474.41;2077830;28;20223;-70
2021/12/04 00:49:12;;;;;;;26.50;20.40;;;;;;;-3.81;94.62;98473.63;2075044;28;20281;-69
2021/12/04 00:50:13;;;;;;;27.48;20.83;;;;;;;-3.79;94.49;98471.59;2077485;28;20696;-69
2021/12/04 00:51:16;;;;;;;27.70;21.00;;;;;;;-3.72;95.05;98473.13;2077984;28;20277;-70
2021/12/04 00:52:17;;;;;;;26.95;20.73;;;;;;;-3.65;94.29;98478.22;2078563;28;20276;-69
2021/12/04 00:53:20;;;;;;;25.47;21.00;;;;;;;-3.68;94.40;98477.88;2078563;28;20677;-69
2021/12/04 00:54:21;;;;;;;30.25;21.48;;;;;;;-3.72;94.87;98478.31;2077736;28;20223;-69
2021/12/04 00:55:23;;;;;;;25.17;20.08;;;;;;;-3.74;94.45;98474.31;2069462;28;20227;-70
2021/12/04 00:56:25;;;;;;;31.85;21.13;;;;;;;-3.73;94.94;98475.94;2070052;28;20725;-70
2021/12/04 00:57:26;;;;;;;27.90;19.85;;;;;;;-3.75;94.80;98472.72;2069808;28;20701;-69
2021/12/04 00:58:27;;;;;;;23.05;19.52;;;;;;;-3.77;95.35;98467.75;2070489;28;20228;-70
2021/12/04 00:59:29;;;;;;;28.97;20.33;;;;;;;-3.78;95.14;98468.75;2069735;28;20232;-69
2021/12/04 01:00:30;;;;;;;28.10;20.48;;;;;;;-3.76;95.39;98464.13;2075982;28;20239;-70
2021/12/04 01:01:32;;;;;;;29.00;20.73;;;;;;;-3.70;94.97;98465.88;2086203;28;20226;-69
2021/12/04 01:02:33;;;;;;;24.67;20.35;;;;;;;-3.68;94.75;98463.03;2070257;28;20223;-70
2021/12/04 01:03:37;;;;;;;26.33;20.27;;;;;;;-3.68;94.48;98465.63;2069799;28;20283;-69
2021/12/04 01:04:39;;;;;;;29.80;20.65;;;;;;;-3.72;94.47;98464.50;2077511;28;20674;-69
2021/12/04 01:05:40;;;;;;;23.63;20.23;;;;;;;-3.72;94.87;98467.09;2077797;28;20293;-69
2021/12/04 01:06:42;;;;;;;29.42;20.98;;;;;;;-3.72;94.40;98462.69;2077734;28;20972;-70
2021/12/04 01:07:43;;;;;;;26.27;20.30;;;;;;;-3.74;94.86;98467.28;2069475;28;20335;-70
2021/12/04 01:08:46;;;;;;;22.70;20.30;;;;;;;-3.76;94.90;98463.31;2077775;28;20232;-69
2021/12/04 01:09:49;;;;;;;26.65;20.60;;;;;;;-3.78;94.87;98458.34;2077581;28;20227;-69
2021/12/04 01:10:49;;;;;;;27.33;20.27;;;;;;;-3.76;94.80;98456.31;2069892;28;20224;-70
2021/12/04 01:11:53;;;;;;;25.73;19.53;;;;;;;-3.74;94.37;98456.06;2069855;28;20226;-69
2021/12/04 01:13:00;;;;;;;27.15;20.10;;;;;;;-3.71;94.94;98460.88;2071235;28;20312;-69
2021/12/04 01:14:02;;;;;;;22.02;19.75;;;;;;;-3.68;94.06;98452.59;2071134;28;20276;-70
2021/12/04 01:15:03;;;;;;;25.30;20.83;;;;;;;-3.67;94.26;98458.63;2063053;28;20237;-69
2021/12/04 01:16:06;;;;;;;22.90;19.70;;;;;;;-3.71;94.31;98447.84;2065180;28;20224;-69
2021/12/04 01:17:07;;;;;;;26.73;20.65;;;;;;;-3.70;93.72;98457.25;2066966;28;20577;-73
2021/12/04 01:18:09;;;;;;;22.33;19.55;;;;;;;-3.69;93.83;98456.22;2064847;28;20231;-70
2021/12/04 01:19:10;;;;;;;26.02;19.30;;;;;;;-3.68;93.76;98457.03;2062968;28;20228;-70
2021/12/04 01:20:12;;;;;;;26.60;20.70;;;;;;;-3.70;93.92;98450.22;2070500;28;20730;-70
2021/12/04 01:21:13;;;;;;;22.42;20.15;;;;;;;-3.66;94.41;98450.56;2071863;28;20224;-70
2021/12/04 01:22:16;;;;;;;23.50;20.00;;;;;;;-3.70;94.01;98447.63;2070979;28;20220;-70
2021/12/04 01:23:18;;;;;;;22.98;19.58;;;;;;;-3.60;93.52;98447.09;2071118;28;20721;-70
2021/12/04 01:24:25;;;;;;;28.65;20.15;;;;;;;-3.62;92.89;98445.72;2071734;28;20228;-69
2021/12/04 01:25:26;;;;;;;27.48;21.00;;;;;;;-3.65;93.27;98443.53;2071163;28;20228;-70
2021/12/04 01:26:28;;;;;;;22.80;19.67;;;;;;;-3.64;93.62;98445.16;2071062;28;20721;-70
2021/12/04 01:27:29;;;;;;;25.35;20.27;;;;;;;-3.65;93.27;98441.72;2062873;28;20225;-69
2021/12/04 01:28:30;;;;;;;21.60;19.43;;;;;;;-3.63;93.26;98438.94;2063071;28;20249;-69
2021/12/04 01:29:32;;;;;;;26.48;20.25;;;;;;;-3.64;93.03;98439.94;2078561;28;20674;-70
2021/12/04 01:30:36;;;;;;;22.55;19.92;;;;;;;-3.68;93.52;98442.19;2078878;28;20581;-69
2021/12/04 01:31:37;;;;;;;22.92;20.27;;;;;;;-3.70;93.30;98434.59;2070786;28;20227;-70
2021/12/04 01:32:39;;;;;;;24.70;19.57;;;;;;;-3.74;93.34;98428.19;2079182;28;20639;-70
2021/12/04 01:33:40;;;;;;;24.20;19.88;;;;;;;-3.75;93.99;98431.03;2074508;28;20232;-69
2021/12/04 01:34:42;;;;;;;21.90;19.63;;;;;;;-3.81;94.34;98434.53;2062730;28;20232;-70
2021/12/04 01:35:43;;;;;;;25.10;20.98;;;;;;;-3.84;94.72;98434.94;2062538;28;20229;-69
2021/12/04 01:36:46;;;;;;;21.98;19.58;;;;;;;-3.85;94.98;98436.75;2063017;28;20231;-69
2021/12/04 01:37:48;;;;;;;21.80;19.63;;;;;;;-3.84;95.32;98434.94;2063533;28;20280;-69
2021/12/04 01:38:50;;;;;;;22.98;19.70;;;;;;;-3.85;94.70;98433.38;2061524;28;20225;-69
2021/12/04 01:39:52;;;;;;;23.20;19.98;;;;;;;-3.86;94.98;98434.38;2071141;28;20250;-69
2021/12/04 01:40:54;;;;;;;24.27;19.48;;;;;;;-3.87;95.73;98433.59;2078877;28;20236;-70
2021/12/04 01:41:54;;;;;;;23.33;18.75;;;;;;;-3.87;95.21;98427.56;2071749;28;20224;-69
2021/12/04 01:42:57;;;;;;;23.77;18.93;;;;;;;-3.88;95.60;98424.19;2071755;28;20286;-69
2021/12/04 01:43:59;;;;;;;22.00;19.10;;;;;;;-3.89;95.63;98429.63;2071217;28;20259;-69
2021/12/04 01:45:04;;;;;;;21.40;18.85;;;;;;;-3.92;95.94;98430.81;2071083;28;20266;-69
2021/12/04 01:46:06;;;;;;;21.85;18.63;;;;;;;-3.92;95.53;98430.81;2070634;28;20310;-69
2021/12/04 01:47:12;;;;;;;21.85;18.90;;;;;;;-3.97;96.02;98432.50;2070627;28;20232;-70
2021/12/04 01:48:14;;;;;;;21.00;18.85;;;;;;;-3.99;95.83;98433.53;2070772;28;20643;-69
2021/12/04 01:49:15;;;;;;;20.25;18.27;;;;;;;-4.00;96.38;98429.34;2070766;28;20235;-69
2021/12/04 01:50:17;;;;;;;23.10;19.10;;;;;;;-3.99;96.80;98425.72;2071783;28;20224;-69
2021/12/04 01:51:20;;;;;;;21.13;18.98;;;;;;;-4.00;96.65;98431.94;2071738;28;20684;-69
2021/12/04 01:52:22;;;;;;;25.55;18.52;;;;;;;-3.99;97.06;98432.72;2071552;28;20315;-69
2021/12/04 01:53:24;;;;;;;21.58;18.75;;;;;;;-4.00;97.17;98425.91;2072779;28;20274;-69
2021/12/04 01:54:26;;;;;;;25.50;19.85;;;;;;;-4.01;97.48;98422.50;2071603;28;20282;-69
2021/12/04 01:55:30;;;;;;;20.63;18.48;;;;;;;-4.03;98.14;98419.31;2071717;28;20227;-69
2021/12/04 01:56:33;;;;;;;20.83;18.70;;;;;;;-4.04;98.81;98422.94;2071573;28;20220;-70
2021/12/04 01:57:34;;;;;;;20.85;18.60;;;;;;;-4.07;98.61;98406.97;2071556;28;20227;-69
2021/12/04 01:58:37;;;;;;;25.40;18.80;;;;;;;-4.09;98.93;98409.78;2072942;28;20256;-69
2021/12/04 01:59:38;;;;;;;21.80;19.55;;;;;;;-4.10;98.89;98412.59;2070423;28;20228;-69
2021/12/04 02:00:41;;;;;;;23.07;18.90;;;;;;;-4.14;99.34;98414.84;2078904;28;20219;-70
2021/12/04 02:01:42;;;;;;;21.38;19.17;;;;;;;-4.16;99.35;98414.28;2072217;28;20239;-69
2021/12/04 02:02:43;;;;;;;25.47;20.50;;;;;;;-4.20;99.95;98413.09;2078943;28;20223;-70
2021/12/04 02:03:44;;;;;;;22.85;19.73;;;;;;;-4.25;100.00;98412.97;2070637;28;20580;-70
2021/12/04 02:04:46;;;;;;;22.00;19.27;;;;;;;-4.28;100.00;98398.56;2070859;28;20256;-69
2021/12/04 02:05:50;;;;;;;22.85;18.77;;;;;;;-4.30;100.00;98403.19;2070535;28;20235;-69
2021/12/04 02:06:52;;;;;;;25.98;19.08;;;;;;;-4.32;100.00;98400.00;2070964;28;20694;-70
2021/12/04 02:07:53;;;;;;;21.92;18.73;;;;;;;-4.33;100.00;98398.44;2078551;28;20235;-70
2021/12/04 02:08:55;;;;;;;24.03;18.97;;;;;;;-4.33;100.00;98401.03;2078863;28;20224;-70
2021/12/04 02:09:55;;;;;;;21.25;19.15;;;;;;;-4.35;100.00;98397.03;2079758;28;20561;-69
2021/12/04 02:11:00;;;;;;;20.57;18.43;;;;;;;-4.32;100.00;98400.00;2078958;28;20341;-70
2021/12/04 02:12:04;;;;;;;20.05;18.10;;;;;;;-4.32;100.00;98383.59;2079028;28;20223;-70
2021/12/04 02:13:06;;;;;;;19.90;17.90;;;;;;;-4.32;100.00;98389.59;2079581;28;20243;-69
2021/12/04 02:14:07;;;;;;;20.85;18.65;;;;;;;-4.23;100.00;98384.09;2079296;28;20243;-69
2021/12/04 02:15:12;;;;;;;20.43;18.63;;;;;;;-4.19;100.00;98383.44;2079648;28;20237;-69
2021/12/04 02:16:17;;;;;;;19.88;17.85;;;;;;;-4.17;100.00;98384.03;2079061;28;20575;-70
2021/12/04 02:17:18;;;;;;;20.42;18.35;;;;;;;-4.16;100.00;98388.22;2063627;28;20282;-70
2021/12/04 02:18:20;;;;;;;20.60;18.33;;;;;;;-4.16;100.00;98387.44;2070659;28;20224;-70
2021/12/04 02:19:23;;;;;;;19.80;17.73;;;;;;;-4.13;100.00;98385.19;2079507;28;20245;-70
2021/12/04 02:20:29;;;;;;;20.52;18.13;;;;;;;-4.10;100.00;98378.72;2079228;28;20227;-70
2021/12/04 02:21:31;;;;;;;20.25;18.20;;;;;;;-4.10;100.00;98387.34;2078781;28;20242;-70
2021/12/04 02:22:33;;;;;;;21.38;18.02;;;;;;;-4.09;100.00;98380.31;2079021;28;20223;-69
2021/12/04 02:23:34;;;;;;;20.05;18.00;;;;;;;-4.08;100.00;98380.13;2079573;28;20259;-70
2021/12/04 02:24:35;;;;;;;20.17;18.13;;;;;;;-4.06;99.77;98362.47;2078805;28;20309;-70
2021/12/04 02:25:37;;;;;;;20.10;18.05;;;;;;;-4.07;99.64;98371.28;2078866;28;20454;-69
2021/12/04 02:26:39;;;;;;;19.50;17.70;;;;;;;-4.05;99.11;98365.88;2078660;28;20701;-71
2021/12/04 02:27:40;;;;;;;20.80;18.73;;;;;;;-3.99;98.91;98367.59;2078659;28;20219;-70
2021/12/04 02:28:44;;;;;;;22.77;17.83;;;;;;;-3.93;98.67;98363.31;2078880;28;20233;-69
2021/12/04 02:29:47;;;;;;;19.80;17.73;;;;;;;-3.93;98.01;98361.50;2079456;28;20694;-70
2021/12/04 02:30:49;;;;;;;20.90;18.83;;;;;;;-3.91;98.69;98356.06;2079677;28;20227;-70
2021/12/04 02:31:51;;;;;;;21.08;18.88;;;;;;;-3.90;99.76;98350.66;2078862;28;20784;-70
2021/12/04 02:32:54;;;;;;;20.10;18.10;;;;;;;-3.89;99.07;98351.44;2078643;28;20306;-71
2021/12/04 02:33:55;;;;;;;20.45;18.35;;;;;;;-3.94;99.45;98349.50;2086926;28;20709;-70
2021/12/04 02:34:57;;;;;;;21.42;19.20;;;;;;;-3.96;99.19;98345.53;2079578;28;20622;-70
2021/12/04 02:36:02;;;;;;;21.67;18.90;;;;;;;-4.02;99.03;98342.75;2078694;28;20693;-70
2021/12/04 02:37:03;;;;;;;22.75;18.85;;;;;;;-4.02;99.03;98340.16;2071009;28;20257;-70
2021/12/04 02:38:04;;;;;;;20.25;18.45;;;;;;;-4.04;98.65;98339.59;2070637;28;20286;-70
2021/12/04 02:39:07;;;;;;;20.43;18.33;;;;;;;-4.07;99.35;98337.44;2078667;28;20277;-70
2021/12/04 02:40:10;;;;;;;21.80;18.92;;;;;;;-4.10;99.63;98331.84;2079030;28;20227;-70
2021/12/04 02:41:14;;;;;;;19.85;17.88;;;;;;;-4.13;99.82;98332.31;2079272;28;20268;-70
2021/12/04 02:42:22;;;;;;;20.17;18.27;;;;;;;-4.15;99.71;98337.72;2079456;28;20215;-69
2021/12/04 02:43:24;;;;;;;22.27;18.67;;;;;;;-4.20;100.00;98326.38;2079046;28;20255;-70
2021/12/04 02:44:33;;;;;;;21.17;18.27;;;;;;;-4.22;100.00;98331.81;2078571;28;20227;-69
2021/12/04 02:45:35;;;;;;;22.63;19.38;;;;;;;-4.23;100.00;98330.22;2078892;28;20717;-70
2021/12/04 02:46:35;;;;;;;19.52;17.70;;;;;;;-4.25;100.00;98327.03;2079436;28;20276;-69
2021/12/04 02:47:39;;;;;;;21.17;18.90;;;;;;;-4.28;100.00;98319.66;2079569;28;20277;-69
2021/12/04 02:48:41;;;;;;;20.35;18.15;;;;;;;-4.27;100.00;98326.44;2079053;28;20228;-70
2021/12/04 02:49:43;;;;;;;20.67;18.17;;;;;;;-4.30;100.00;98326.88;2079330;28;20326;-70
2021/12/04 02:50:45;;;;;;;19.98;18.17;;;;;;;-4.26;100.00;98330.63;2079370;28;20223;-70
2021/12/04 02:51:48;;;;;;;19.08;17.33;;;;;;;-4.20;100.00;98331.56;2078625;28;20215;-70
2021/12/04 02:52:49;;;;;;;20.38;18.00;;;;;;;-4.15;100.00;98335.13;2070597;28;20232;-70
2021/12/04 02:53:51;;;;;;;19.63;17.73;;;;;;;-4.13;100.00;98324.50;2078581;28;20219;-70
2021/12/04 02:54:52;;;;;;;19.63;17.83;;;;;;;-4.09;100.00;98331.63;2079036;28;20246;-71
2021/12/04 02:55:54;;;;;;;19.67;17.73;;;;;;;-3.98;99.56;98337.94;2079267;28;20375;-70
2021/12/04 02:56:55;;;;;;;20.58;18.60;;;;;;;-3.92;98.59;98337.03;2078518;28;20694;-70
2021/12/04 02:57:57;;;;;;;20.07;18.17;;;;;;;-3.86;97.89;98346.59;2070414;28;20239;-70
2021/12/04 02:59:01;;;;;;;19.63;17.92;;;;;;;-3.80;97.73;98350.13;2070389;28;20224;-70
2021/12/04 03:00:04;;;;;;;19.88;17.90;;;;;;;-3.77;97.33;98347.06;2070933;28;20224;-70
2021/12/04 03:01:07;;;;;;;19.75;17.73;;;;;;;-3.75;97.38;98352.84;2078622;28;20234;-70
2021/12/04 03:02:17;;;;;;;21.60;18.63;;;;;;;-3.74;97.07;98342.19;2077226;28;20310;-70
2021/12/04 03:03:20;;;;;;;20.90;18.60;;;;;;;-3.74;98.00;98341.41;2078547;28;20226;-69
2021/12/04 03:04:23;;;;;;;20.98;18.80;;;;;;;-3.75;98.27;98337.22;2078613;28;20745;-70
2021/12/04 03:05:26;;;;;;;19.33;17.52;;;;;;;-3.81;98.22;98331.09;2078762;28;20582;-70
2021/12/04 03:06:27;;;;;;;20.08;18.08;;;;;;;-3.82;100.00;98331.28;2078525;28;20272;-69
2021/12/04 03:07:31;;;;;;;20.63;18.50;;;;;;;-3.82;100.00;98328.69;2070487;28;20224;-70
2021/12/04 03:08:33;;;;;;;21.92;18.95;;;;;;;-3.84;100.00;98322.91;2078586;28;20219;-71
2021/12/04 03:09:35;;;;;;;20.42;18.38;;;;;;;-3.86;100.00;98317.13;2078346;28;20334;-70
2021/12/04 03:10:37;;;;;;;21.88;19.45;;;;;;;-3.88;100.00;98326.97;2078403;28;20588;-70
2021/12/04 03:11:38;;;;;;;20.42;18.38;;;;;;;-3.90;100.00;98308.19;2071692;28;20228;-70
2021/12/04 03:12:41;;;;;;;21.40;19.13;;;;;;;-3.91;100.00;98314.38;2070366;28;20220;-70
2021/12/04 03:13:43;;;;;;;20.40;17.95;;;;;;;-3.86;100.00;98304.09;2071047;28;20231;-70
2021/12/04 03:14:44;;;;;;;20.60;18.15;;;;;;;-3.83;100.00;98307.03;2070246;28;20580;-69
2021/12/04 03:15:56;;;;;;;22.45;19.25;;;;;;;-3.81;100.00;98314.66;2066227;28;20699;-70
2021/12/04 03:16:57;;;;;;;25.15;19.10;;;;;;;-3.83;100.00;98308.84;2064357;28;20243;-70
2021/12/04 03:17:59;;;;;;;20.23;18.27;;;;;;;-3.85;100.00;98316.91;2062348;28;20228;-70
2021/12/04 03:19:00;;;;;;;21.88;19.00;;;;;;;-3.86;100.00;98320.53;2062085;28;20263;-70
2021/12/04 03:20:04;;;;;;;21.27;19.15;;;;;;;-3.88;100.00;98317.34;2070313;28;20612;-70
2021/12/04 03:21:06;;;;;;;24.60;19.50;;;;;;;-3.92;100.00;98318.78;2070921;28;20243;-69
2021/12/04 03:22:08;;;;;;;21.05;18.83;;;;;;;-3.95;100.00;98318.44;2070652;28;20316;-71
2021/12/04 03:23:17;;;;;;;21.88;19.20;;;;;;;-3.96;100.00;98320.25;2071043;28;20227;-70
2021/12/04 03:24:20;;;;;;;21.05;18.77;;;;;;;-3.95;100.00;98331.47;2070174;28;20711;-70
2021/12/04 03:25:21;;;;;;;20.60;18.50;;;;;;;-3.92;99.22;98324.00;2062221;28;20556;-71
2021/12/04 03:26:22;;;;;;;22.33;19.20;;;;;;;-3.81;96.79;98333.69;2070401;28;20318;-71
2021/12/04 03:27:25;;;;;;;22.35;20.15;;;;;;;-3.74;95.51;98328.38;2070536;28;20278;-70
2021/12/04 03:28:29;;;;;;;21.20;19.08;;;;;;;-3.71;94.99;98331.34;2070083;28;20669;-71
2021/12/04 03:29:34;;;;;;;25.33;19.67;;;;;;;-3.67;94.84;98333.50;2070303;28;20235;-71
2021/12/04 03:30:43;;;;;;;21.65;19.10;;;;;;;-3.73;95.78;98330.00;2070517;28;20231;-70
2021/12/04 03:32:05;;;;;;;24.98;19.65;;;;;;;-3.81;98.55;98322.47;2070039;28;20224;-70
2021/12/04 03:40:05;;;;;;;25.02;19.63;;;;;;;-4.43;100.00;98287.97;2053348;28;20221;-70
2021/12/04 03:41:07;;;;;;;23.67;19.48;;;;;;;-4.53;100.00;98285.09;2054055;28;20283;-70
2021/12/04 03:42:09;;;;;;;21.77;19.48;;;;;;;-4.58;100.00;98280.56;2078590;28;20662;-71
2021/12/04 03:43:11;;;;;;;22.80;20.05;;;;;;;-4.64;100.00;98282.22;2078134;28;20587;-70
2021/12/04 03:44:14;;;;;;;27.17;20.55;;;;;;;-4.70;100.00;98283.06;2078344;28;20763;-70
2021/12/04 03:45:14;;;;;;;23.52;19.55;;;;;;;-4.76;100.00;98283.94;2078299;28;20736;-70
2021/12/04 03:46:18;;;;;;;25.00;19.77;;;;;;;-4.83;100.00;98285.81;2070094;28;20644;-70
2021/12/04 03:47:21;;;;;;;30.77;21.45;;;;;;;-4.89;100.00;98284.06;2078170;28;20234;-70
2021/12/04 03:49:40;;;;;;;32.38;23.20;;;;;;;-4.91;100.00;98281.69;2065097;28;20231;-71
2021/12/04 03:50:41;;;;;;;32.22;23.27;;;;;;;-4.94;100.00;98268.34;2077921;28;20302;-70
2021/12/04 03:51:43;;;;;;;41.65;25.55;;;;;;;-4.90;100.00;98277.28;2069833;28;20235;-70
2021/12/04 03:52:44;;;;;;;33.58;25.17;;;;;;;-4.92;100.00;98274.09;2069841;28;20235;-71
2021/12/04 03:53:47;;;;;;;41.13;26.23;;;;;;;-4.94;100.00;98274.31;2078039;28;20262;-70
2021/12/04 03:54:48;;;;;;;38.35;24.48;;;;;;;-4.94;100.00;98281.34;2078024;28;20242;-70
2021/12/04 03:55:50;;;;;;;37.97;24.33;;;;;;;-4.98;100.00;98280.16;2070044;28;20220;-70
2021/12/04 03:57:02;;;;;;;34.75;23.65;;;;;;;-4.97;100.00;98279.16;2069900;28;20307;-71
2021/12/04 03:58:07;;;;;;;33.42;23.75;;;;;;;-5.01;100.00;98275.41;2071298;28;20278;-70
2021/12/04 03:59:08;;;;;;;26.15;21.73;;;;;;;-5.04;100.00;98275.81;2069637;28;20235;-70
2021/12/04 04:00:11;;;;;;;23.67;20.40;;;;;;;-5.10;100.00;98269.69;2061927;28;20224;-70
2021/12/04 04:01:12;;;;;;;30.42;21.90;;;;;;;-5.13;100.00;98283.88;2070042;28;20224;-70
2021/12/04 04:02:16;;;;;;;28.07;21.73;;;;;;;-5.21;100.00;98281.59;2070788;28;20246;-71
2021/12/04 04:03:18;;;;;;;38.53;23.92;;;;;;;-5.22;100.00;98279.97;2069930;28;21084;-70
2021/12/04 04:04:20;;;;;;;37.15;24.23;;;;;;;-5.28;100.00;98273.03;2070049;28;20278;-71
2021/12/04 04:05:21;;;;;;;30.25;23.17;;;;;;;-5.30;100.00;98280.25;2070460;28;20228;-70
2021/12/04 04:06:23;;;;;;;30.53;21.87;;;;;;;-5.32;100.00;98281.47;2077632;28;20821;-72
2021/12/04 04:07:23;;;;;;;31.90;23.33;;;;;;;-5.34;100.00;98278.28;2069847;28;20228;-71
2021/12/04 04:08:25;;;;;;;34.33;24.50;;;;;;;-5.34;100.00;98286.88;2078178;28;20749;-71
2021/12/04 04:09:28;;;;;;;27.67;22.20;;;;;;;-5.37;100.00;98278.72;2078762;28;20582;-70
2021/12/04 04:10:29;;;;;;;33.85;23.23;;;;;;;-5.37;100.00;98279.53;2078833;28;20678;-70
2021/12/04 04:11:36;;;;;;;26.83;22.67;;;;;;;-5.44;100.00;98268.38;2078101;28;20596;-70
2021/12/04 04:12:37;;;;;;;34.75;24.80;;;;;;;-5.38;100.00;98283.13;2077877;28;20227;-72
2021/12/04 04:13:42;;;;;;;36.23;23.73;;;;;;;-5.43;100.00;98278.56;2078070;28;20670;-71
2021/12/04 04:14:43;;;;;;;27.52;23.42;;;;;;;-5.44;100.00;98273.56;2070600;28;20752;-70
2021/12/04 04:15:44;;;;;;;30.77;23.60;;;;;;;-5.47;100.00;98276.59;2078221;28;20611;-70
2021/12/04 04:16:45;;;;;;;34.83;23.25;;;;;;;-5.49;100.00;98271.59;2078841;28;20223;-70
2021/12/04 04:17:50;;;;;;;36.93;24.87;;;;;;;-5.51;100.00;98270.22;2078125;28;20317;-70
2021/12/04 04:18:51;;;;;;;26.52;21.25;;;;;;;-5.53;100.00;98267.84;2070654;28;20685;-70
2021/12/04 04:19:53;;;;;;;28.23;22.33;;;;;;;-5.56;100.00;98272.66;2077899;28;20242;-70
2021/12/04 04:20:54;;;;;;;31.08;22.27;;;;;;;-5.59;100.00;98265.28;2078922;28;20231;-70
2021/12/04 04:21:56;;;;;;;42.30;25.50;;;;;;;-5.61;100.00;98259.50;2078910;28;20276;-70
2021/12/04 04:22:57;;;;;;;34.65;24.13;;;;;;;-5.62;100.00;98263.13;2078944;28;20578;-70
2021/12/04 04:23:59;;;;;;;40.27;27.23;;;;;;;-5.63;100.00;98262.31;2078885;28;20219;-70
2021/12/04 04:25:01;;;;;;;35.08;23.98;;;;;;;-5.66;100.00;98265.31;2078954;28;20681;-70
2021/12/04 04:26:04;;;;;;;29.63;23.80;;;;;;;-5.65;100.00;98264.31;2079004;28;20674;-70
2021/12/04 04:27:06;;;;;;;39.22;24.65;;;;;;;-5.66;100.00;98269.72;2078985;28;20232;-70
2021/12/04 04:28:08;;;;;;;31.52;23.42;;;;;;;-5.68;100.00;98265.53;2085764;28;20628;-71
2021/12/04 04:29:11;;;;;;;35.75;24.60;;;;;;;-5.72;100.00;98259.19;2077949;28;20227;-70
2021/12/04 04:30:14;;;;;;;31.27;23.25;;;;;;;-5.75;100.00;98264.78;2078000;28;20798;-70
2021/12/04 04:31:16;;;;;;;35.50;24.33;;;;;;;-5.77;100.00;98264.22;2077954;28;20223;-71
2021/12/04 04:32:19;;;;;;;44.88;24.65;;;;;;;-5.79;100.00;98261.03;2070050;28;20226;-70
2021/12/04 04:33:21;;;;;;;35.17;23.83;;;;;;;-5.80;100.00;98254.25;2078174;28;20227;-69
2021/12/04 04:34:26;;;;;;;27.73;22.55;;;;;;;-5.80;100.00;98256.06;2077647;28;20241;-71
2021/12/04 04:35:28;;;;;;;36.28;24.15;;;;;;;-5.82;100.00;98255.44;2070265;28;21195;-70
2021/12/04 04:37:55;;;;;;;28.73;22.40;;;;;;;-5.86;100.00;98259.47;2078621;28;20615;-70
2021/12/04 04:39:10;;;;;;;32.55;24.08;;;;;;;-5.91;100.00;98254.94;2078175;28;20259;-70
2021/12/04 04:57:47;;;;;;;26.50;21.40;;;;;;;-6.12;100.00;98222.31;2080211;28;20233;-70
2021/12/04 04:58:58;;;;;;;32.42;23.25;;;;;;;-6.11;100.00;98225.72;2079343;28;20216;-70
2021/12/04 05:11:12;;;;;;;29.17;20.25;;;;;;;-6.29;100.00;98216.03;2026495;29;20579;-71
2021/12/04 05:12:22;;;;;;;27.58;21.38;;;;;;;-6.30;100.00;98209.25;2026194;28;20251;-70
2021/12/04 05:13:24;;;;;;;26.20;20.77;;;;;;;-6.29;100.00;98209.03;2048647;28;20732;-70
2021/12/04 05:14:25;;;;;;;29.08;21.88;;;;;;;-6.31;100.00;98208.47;2046912;28;20307;-70
2021/12/04 05:15:37;;;;;;;28.43;22.27;;;;;;;-6.32;100.00;98203.50;2046956;28;20313;-70
2021/12/04 05:16:46;;;;;;;26.27;21.63;;;;;;;-6.37;100.00;98200.72;2055117;28;20882;-70
2021/12/04 05:18:05;;;;;;;29.00;21.92;;;;;;;-6.38;100.00;98199.91;2072289;28;20311;-70
2021/12/04 05:19:13;;;;;;;24.00;21.13;;;;;;;-6.42;100.00;98190.97;2073426;28;20604;-70
2021/12/04 05:20:19;;;;;;;24.75;20.05;;;;;;;-6.42;100.00;98192.78;2071763;28;20220;-70
2021/12/04 05:21:21;;;;;;;25.10;21.45;;;;;;;-6.46;100.00;98189.78;2072135;28;20697;-70
2021/12/04 05:22:24;;;;;;;25.40;21.55;;;;;;;-6.46;100.00;98192.38;2068922;28;20285;-70
2021/12/04 05:23:26;;;;;;;23.73;21.00;;;;;;;-6.46;100.00;98194.16;2079512;28;20281;-70
2021/12/04 05:24:28;;;;;;;27.23;20.90;;;;;;;-6.49;100.00;98190.22;2079235;28;20610;-70
2021/12/04 05:25:30;;;;;;;25.08;20.35;;;;;;;-6.48;100.00;98185.81;2071156;28;20220;-70
2021/12/04 05:26:31;;;;;;;24.77;20.77;;;;;;;-6.49;100.00;98187.59;2079486;28;20230;-70
2021/12/04 05:27:33;;;;;;;26.98;21.08;;;;;;;-6.49;100.00;98192.78;2080051;28;20280;-70
2021/12/04 05:28:38;;;;;;;30.45;21.20;;;;;;;-6.53;100.00;98178.63;2079978;28;20280;-70
2021/12/04 05:29:41;;;;;;;23.10;20.60;;;;;;;-6.52;100.00;98182.03;2079803;28;20239;-70
2021/12/04 05:30:42;;;;;;;26.95;21.42;;;;;;;-6.51;100.00;98181.84;2080087;28;20242;-71
2021/12/04 05:31:43;;;;;;;25.83;20.83;;;;;;;-6.52;100.00;98184.63;2079263;28;20756;-70
2021/12/04 05:32:44;;;;;;;26.88;21.42;;;;;;;-6.51;100.00;98181.84;2079395;28;20261;-70
2021/12/04 05:33:46;;;;;;;26.17;20.67;;;;;;;-6.52;100.00;98177.63;2079170;28;20273;-70
2021/12/04 05:34:47;;;;;;;25.10;21.02;;;;;;;-6.53;100.00;98181.22;2071124;28;20698;-69
2021/12/04 05:35:50;;;;;;;23.20;20.10;;;;;;;-6.50;100.00;98191.22;2065061;28;20229;-70